Strathmore Agdm

CPST · 艾伯塔, 加拿大

罗盘
风向 的 风向 的 风向 到 风向 230°
风: 5 kt, 2 beaufort

添加一条跑道以查看侧风和逆风信息。

添置 跑道
0 ft 2.000 4.000 6.000 8.000 10.000
Cloud Cloud Cloud Cloud
SCT 3.800
Cloud Cloud Cloud Cloud Cloud Cloud Cloud Cloud
OVC 7.000
METAR CYYC 301800Z 23005KT 190V260 4SM -SN SCT038 OVC070 M09/M12 A3007 RMK SN2SC2AC4 /S01/ SLP258

METAR Strathmore Agdm - CPST

Strathmore Agdm是,加拿大中的未知。 视场标高为3.297 ft。 该领域的国际民航组织标志是CPST.

这份报告是针对2023年1月30日 11:00, 当地时间在Calgary International Airport进行的。

机场观察

风向为230°,速度为5 kt。 风向在190°和260°之间变化。

可见度为4 mi。

有疏云,零星散落的云朵在3.800 ft的高度 和 乌云密布在7.000 ft的高度。 破损或更高的上限为7.000 ft。

当前天气为光 雪。 温度为-9 °C,阵风为-16 °C。 露点为-12 °C,相对湿度为79%。 海平面上的气压为30,07 inHg (QNH)。

白天

今天,太阳从08:12升起,在17:20降落。 这适用于Strathmore Agdm,世界夏令时可能有所不同。 当地时间与世界标准时间之间的时差为-7 小时。 当前,没有夏令时有效。

公司介绍

我们没有关于这个机场的公司信息。

体会

到Vliegles.nl去找飞行课程,跳伞和其他飞行体验。 浏览页面,了解Strathmore Agdm附近所有可用的活动。 你也可以使用搜索功能来寻找你所在地附近的特定飞行课程、跳伞或其他飞行体验。

乌云

3.800 ft SCT 疏云,零星散落的云朵
7.000 ft OVC 乌云密布

温度 & 天气

天气 光 雪
温度 -9 °C
露点 -12 °C
相对湿度 79%
风寒 -16 °C
Kp-index 0 (0-9)

评论

SLP258海平面压力为30,29 inHg (30,29 inHg)
SN2SC2AC4 /S01/

白天

日出
08:15
中午
12:49
日落
17:23 (6:06)

小工具

你想在你的网站上有一个关于Strathmore Agdm的当前航空天气(METAR)的小部件吗?

显示HTML代码

我们和第三方通过cookies跟踪您在我们网站上的互联网行为。如果你继续,我们认为你同意我们的饼干政策